createdAt,value
2018-09-03T00:00:50.836Z,2.67
2018-09-03T00:03:18.853Z,3.03
2018-09-03T00:05:47.925Z,3.10
2018-09-03T00:08:15.946Z,2.97
2018-09-03T00:10:44.137Z,2.63
2018-09-03T00:13:12.155Z,3.07
2018-09-03T00:15:40.317Z,3.30
2018-09-03T00:18:08.338Z,3.00
2018-09-03T00:20:36.344Z,3.17
2018-09-03T00:23:04.344Z,2.87
2018-09-03T00:25:32.352Z,2.90
2018-09-03T00:28:00.405Z,3.10
2018-09-03T00:30:28.417Z,3.10
2018-09-03T00:33:01.809Z,3.10
2018-09-03T00:35:35.234Z,2.80
2018-09-03T00:38:08.661Z,3.37
2018-09-03T00:40:41.974Z,3.10
2018-09-03T00:43:15.565Z,3.17
2018-09-03T00:45:49.163Z,3.70
2018-09-03T00:48:17.193Z,3.10
2018-09-03T00:50:45.196Z,4.47
2018-09-03T00:53:13.196Z,3.23
2018-09-03T00:55:41.293Z,3.30
2018-09-03T00:58:09.364Z,3.60
2018-09-03T01:00:37.406Z,3.80
2018-09-03T01:03:05.609Z,3.10
2018-09-03T01:05:33.842Z,3.73
2018-09-03T01:08:01.921Z,3.60
2018-09-03T01:10:29.914Z,3.40
2018-09-03T01:12:57.937Z,3.90
2018-09-03T01:15:29.496Z,3.27
2018-09-03T01:17:58.169Z,4.10
2018-09-03T01:20:26.197Z,3.83
2018-09-03T01:22:54.182Z,4.03
2018-09-03T01:25:22.306Z,4.27
2018-09-03T01:27:50.410Z,3.93
2018-09-03T01:30:18.437Z,3.97
2018-09-03T01:32:46.445Z,4.70
2018-09-03T01:35:14.505Z,4.53
2018-09-03T01:37:42.507Z,4.23
2018-09-03T01:40:10.717Z,4.67
2018-09-03T01:42:38.774Z,4.03
2018-09-03T01:45:06.773Z,4.00
2018-09-03T01:47:35.065Z,4.93
2018-09-03T01:50:03.048Z,4.90
2018-09-03T01:52:31.074Z,4.50
2018-09-03T01:54:59.113Z,5.20
2018-09-03T01:57:27.102Z,5.30
2018-09-03T01:59:55.196Z,4.90
2018-09-03T02:02:23.352Z,5.30
2018-09-03T02:04:51.354Z,4.97
2018-09-03T02:07:19.361Z,5.13
2018-09-03T02:09:47.386Z,5.67
2018-09-03T02:12:15.408Z,5.27
2018-09-03T02:14:44.228Z,5.30
2018-09-03T02:17:13.420Z,4.80
2018-09-03T02:19:41.490Z,5.30
2018-09-03T02:22:09.472Z,5.10
2018-09-03T02:24:37.756Z,5.67
2018-09-03T02:27:05.790Z,5.60
2018-09-03T02:29:33.800Z,5.40
2018-09-03T02:32:01.941Z,5.33
2018-09-03T02:34:30.101Z,5.80
2018-09-03T02:36:58.104Z,5.73
2018-09-03T02:39:26.096Z,5.90
2018-09-03T02:41:54.122Z,6.27
2018-09-03T02:44:22.130Z,6.10
2018-09-03T02:46:50.142Z,5.80
2018-09-03T02:49:18.159Z,7.20
2018-09-03T02:51:46.161Z,5.50
2018-09-03T02:54:14.204Z,7.03
2018-09-03T02:56:42.225Z,6.10
2018-09-03T02:59:10.245Z,6.70
2018-09-03T03:01:38.253Z,6.03
2018-09-03T03:04:06.277Z,6.80
2018-09-03T03:06:34.301Z,6.87
2018-09-03T03:09:02.380Z,6.50
2018-09-03T03:11:30.398Z,6.90
2018-09-03T03:13:58.405Z,6.63
2018-09-03T03:16:26.423Z,6.50
2018-09-03T03:18:54.613Z,6.50
2018-09-03T03:21:22.672Z,7.07
2018-09-03T03:23:50.724Z,7.27
2018-09-03T03:26:18.737Z,7.37
2018-09-03T03:28:46.784Z,6.63
2018-09-03T03:31:14.793Z,6.97
2018-09-03T03:33:42.789Z,7.20
2018-09-03T03:36:10.920Z,7.90
2018-09-03T03:38:38.905Z,7.80
2018-09-03T03:41:06.982Z,7.07
2018-09-03T03:43:34.966Z,7.97
2018-09-03T03:46:02.969Z,7.73
2018-09-03T03:48:31.032Z,7.83
2018-09-03T03:50:59.087Z,7.07
2018-09-03T03:53:27.081Z,7.70
2018-09-03T03:55:55.150Z,8.10
2018-09-03T03:58:23.223Z,7.00
2018-09-03T04:00:51.298Z,7.93
2018-09-03T04:03:19.316Z,9.23
2018-09-03T04:05:47.400Z,8.50
2018-09-03T04:08:15.437Z,8.13
2018-09-03T04:10:43.496Z,9.30
2018-09-03T04:13:11.518Z,8.13
2018-09-03T04:15:39.540Z,8.53
2018-09-03T04:18:07.583Z,8.70
2018-09-03T04:20:35.589Z,8.60
2018-09-03T04:23:03.671Z,9.60
2018-09-03T04:25:31.602Z,8.80
2018-09-03T04:27:59.601Z,8.37
2018-09-03T04:30:27.585Z,7.80
2018-09-03T04:32:55.929Z,9.27
2018-09-03T04:35:23.951Z,8.50
2018-09-03T04:37:51.966Z,9.03
2018-09-03T04:40:19.989Z,8.60
2018-09-03T04:42:48.022Z,8.40
2018-09-03T04:45:16.181Z,11.53
2018-09-03T04:47:44.218Z,9.13
2018-09-03T04:50:12.242Z,9.20
2018-09-03T04:52:40.249Z,9.10
2018-09-03T04:55:08.308Z,9.00
2018-09-03T04:57:36.402Z,8.37
2018-09-03T05:00:05.200Z,8.57
2018-09-03T05:02:33.222Z,8.80
2018-09-03T05:05:01.224Z,9.83
2018-09-03T05:07:29.281Z,8.40
2018-09-03T05:09:57.368Z,9.03
2018-09-03T05:12:25.435Z,8.07
2018-09-03T05:14:53.420Z,7.47
2018-09-03T05:17:21.459Z,7.90
2018-09-03T05:19:49.461Z,7.93
2018-09-03T05:22:17.565Z,7.70
2018-09-03T05:24:45.611Z,7.90
2018-09-03T05:27:13.677Z,8.70
2018-09-03T05:29:41.757Z,8.57
2018-09-03T05:32:09.841Z,9.37
2018-09-03T05:34:37.827Z,8.60
2018-09-03T05:37:05.897Z,8.10
2018-09-03T05:39:33.909Z,8.30
2018-09-03T05:42:02.028Z,7.83
2018-09-03T05:44:30.062Z,8.23
2018-09-03T05:46:58.052Z,6.90
2018-09-03T05:49:26.064Z,7.80
2018-09-03T05:51:54.123Z,8.00
2018-09-03T05:54:22.145Z,9.60
2018-09-03T05:56:50.147Z,7.80
2018-09-03T05:59:18.296Z,8.03
2018-09-03T06:01:46.337Z,7.13
2018-09-03T06:04:14.479Z,7.97
2018-09-03T06:06:42.488Z,7.03
2018-09-03T06:09:11.935Z,6.77
2018-09-03T06:11:40.210Z,6.97
2018-09-03T06:14:08.356Z,7.00
2018-09-03T06:16:36.380Z,7.07
2018-09-03T06:19:04.388Z,8.10
2018-09-03T06:21:32.450Z,6.93
2018-09-03T06:24:00.636Z,7.93
2018-09-03T06:26:28.620Z,6.83
2018-09-03T06:28:56.647Z,7.20
2018-09-03T06:31:24.701Z,6.80
2018-09-03T06:33:52.701Z,6.27
2018-09-03T06:36:20.711Z,6.17
2018-09-03T06:38:48.716Z,6.97
2018-09-03T06:41:16.773Z,6.67
2018-09-03T06:43:44.769Z,5.80
2018-09-03T06:46:12.810Z,5.20
2018-09-03T06:48:40.822Z,5.93
2018-09-03T06:51:08.828Z,5.40
2018-09-03T06:53:36.878Z,5.90
2018-09-03T06:56:04.840Z,6.43
2018-09-03T06:58:32.857Z,5.90
2018-09-03T07:01:00.845Z,5.40
2018-09-03T07:03:28.869Z,5.60
2018-09-03T07:05:56.873Z,6.40
2018-09-03T07:08:24.943Z,6.80
2018-09-03T07:10:52.974Z,6.00
2018-09-03T07:13:20.955Z,6.20
2018-09-03T07:15:48.981Z,6.23
2018-09-03T07:18:16.997Z,6.40
2018-09-03T07:20:45.012Z,6.33
2018-09-03T07:23:13.025Z,6.93
2018-09-03T07:25:41.099Z,6.27
2018-09-03T07:28:09.117Z,6.37
2018-09-03T07:30:37.125Z,6.93
2018-09-03T07:33:05.335Z,7.93
2018-09-03T07:35:33.400Z,6.30
2018-09-03T07:38:01.330Z,5.80
2018-09-03T07:40:29.355Z,6.63
2018-09-03T07:42:57.398Z,6.80
2018-09-03T07:45:25.418Z,6.67
2018-09-03T07:47:53.428Z,6.40
2018-09-03T07:50:21.473Z,7.10
2018-09-03T07:52:49.500Z,6.70
2018-09-03T07:55:17.549Z,6.10
2018-09-03T07:57:45.582Z,6.40
2018-09-03T08:00:13.814Z,6.93
2018-09-03T08:02:41.864Z,7.20
2018-09-03T08:05:09.896Z,6.87
2018-09-03T08:07:37.936Z,7.30
2018-09-03T08:10:06.580Z,6.70
2018-09-03T08:12:34.585Z,7.70
2018-09-03T08:15:02.647Z,7.13
2018-09-03T08:17:30.697Z,7.47
2018-09-03T08:19:58.776Z,8.87
2018-09-03T08:22:26.749Z,7.07
2018-09-03T08:24:54.753Z,7.67
2018-09-03T08:27:22.744Z,6.63
2018-09-03T08:29:50.763Z,7.00
2018-09-03T08:32:18.777Z,7.47
2018-09-03T08:34:46.840Z,8.70
2018-09-03T08:37:14.889Z,7.90
2018-09-03T08:39:42.909Z,7.70
2018-09-03T08:42:11.137Z,7.20
2018-09-03T08:44:39.288Z,8.00
2018-09-03T08:47:07.457Z,7.13
2018-09-03T08:49:35.472Z,8.10
2018-09-03T08:52:03.513Z,8.63
2018-09-03T08:54:31.512Z,8.80
2018-09-03T08:56:59.562Z,8.97
2018-09-03T08:59:27.553Z,8.70
2018-09-03T09:01:55.585Z,9.30
2018-09-03T09:04:23.588Z,8.27
2018-09-03T09:06:51.617Z,9.17
2018-09-03T09:09:19.630Z,9.70
2018-09-03T09:11:47.654Z,10.20
2018-09-03T09:14:15.629Z,9.60
2018-09-03T09:16:43.661Z,10.20
2018-09-03T09:19:11.652Z,10.00
2018-09-03T09:21:39.686Z,9.20
2018-09-03T09:24:07.769Z,8.63
2018-09-03T09:26:35.811Z,9.33
2018-09-03T09:29:03.809Z,9.37
2018-09-03T09:31:31.789Z,8.80
2018-09-03T09:34:00.212Z,9.20
2018-09-03T09:36:28.219Z,9.90
2018-09-03T09:38:56.214Z,9.83
2018-09-03T09:41:24.217Z,9.67
2018-09-03T09:43:52.216Z,9.73
2018-09-03T09:46:20.227Z,9.27
2018-09-03T09:48:48.248Z,10.20
2018-09-03T09:51:16.263Z,9.30
2018-09-03T09:53:44.368Z,9.90
2018-09-03T09:56:12.396Z,9.93
2018-09-03T09:58:40.397Z,10.00
2018-09-03T10:01:13.793Z,9.60
2018-09-03T10:03:41.788Z,10.47
2018-09-03T10:06:09.805Z,11.77
2018-09-03T10:08:37.793Z,10.73
2018-09-03T10:11:05.936Z,9.80
2018-09-03T10:13:33.945Z,10.17
2018-09-03T10:16:01.948Z,9.67
2018-09-03T10:18:29.939Z,9.43
2018-09-03T10:20:57.968Z,10.43
2018-09-03T10:23:25.968Z,10.70
2018-09-03T10:25:53.976Z,10.90
2018-09-03T10:28:21.969Z,12.03
2018-09-03T10:30:49.957Z,9.30
2018-09-03T10:33:17.961Z,9.07
2018-09-03T10:35:45.964Z,10.20
2018-09-03T10:38:13.994Z,9.70
2018-09-03T10:40:41.961Z,9.47
2018-09-03T10:43:09.976Z,9.43
2018-09-03T10:45:42.157Z,10.30
2018-09-03T10:48:10.165Z,11.00
2018-09-03T10:50:38.159Z,10.43
2018-09-03T10:53:06.220Z,9.33
2018-09-03T10:55:34.208Z,10.90
2018-09-03T10:58:02.398Z,10.00
2018-09-03T11:00:30.386Z,10.23
2018-09-03T11:02:58.414Z,9.60
2018-09-03T11:05:26.430Z,10.77
2018-09-03T11:07:54.475Z,10.10
2018-09-03T11:10:22.476Z,10.23
2018-09-03T11:12:50.529Z,9.67
2018-09-03T11:15:18.570Z,10.40
2018-09-03T11:17:46.611Z,10.20
2018-09-03T11:20:19.189Z,10.20
2018-09-03T11:22:47.220Z,9.93
2018-09-03T11:25:15.292Z,10.07
2018-09-03T11:27:43.412Z,11.40
2018-09-03T11:30:11.457Z,11.38
2018-09-03T11:32:39.735Z,10.77
2018-09-03T11:35:07.822Z,10.13
2018-09-03T11:37:35.873Z,10.03
2018-09-03T11:40:03.928Z,10.03
2018-09-03T11:42:32.150Z,10.57
2018-09-03T11:45:00.164Z,10.90
2018-09-03T11:47:28.533Z,10.13
2018-09-03T11:49:56.549Z,11.37
2018-09-03T11:52:24.572Z,10.00
2018-09-03T11:54:52.577Z,10.63
2018-09-03T11:57:20.597Z,9.67
2018-09-03T11:59:48.676Z,10.70
2018-09-03T12:02:16.704Z,10.10
2018-09-03T12:04:44.777Z,11.17
2018-09-03T12:07:12.913Z,9.90
2018-09-03T12:09:40.966Z,10.10
2018-09-03T12:12:08.972Z,10.47
2018-09-03T12:14:39.576Z,9.20
2018-09-03T12:17:07.752Z,10.80
2018-09-03T12:19:35.852Z,10.27
2018-09-03T12:22:03.857Z,10.20
2018-09-03T12:24:31.981Z,10.00
2018-09-03T12:27:00.009Z,10.60
2018-09-03T12:29:28.062Z,11.33
2018-09-03T12:31:56.124Z,10.93
2018-09-03T12:34:24.165Z,10.17
2018-09-03T12:36:52.221Z,10.27
2018-09-03T12:39:20.269Z,10.20
2018-09-03T12:41:48.303Z,9.77
2018-09-03T12:44:16.301Z,11.10
2018-09-03T12:46:44.326Z,9.40
2018-09-03T12:49:12.384Z,9.93
2018-09-03T12:51:40.431Z,10.53
2018-09-03T12:54:08.621Z,10.20
2018-09-03T12:56:36.684Z,10.57
2018-09-03T12:59:04.769Z,9.67
2018-09-03T13:01:32.932Z,10.40
2018-09-03T13:04:00.844Z,9.30
2018-09-03T13:06:28.876Z,9.50
2018-09-03T13:08:56.895Z,10.20
2018-09-03T13:11:24.920Z,9.73
2018-09-03T13:13:52.917Z,10.60
2018-09-03T13:16:20.940Z,9.97
2018-09-03T13:18:49.038Z,8.83
2018-09-03T13:21:17.038Z,8.73
2018-09-03T13:23:45.377Z,9.90
2018-09-03T13:26:13.413Z,9.73
2018-09-03T13:28:41.433Z,10.43
2018-09-03T13:31:09.441Z,10.20
2018-09-03T13:33:37.605Z,10.20
2018-09-03T13:36:05.679Z,10.13
2018-09-03T13:38:33.709Z,11.30
2018-09-03T13:41:02.029Z,10.03
2018-09-03T13:43:30.176Z,9.80
2018-09-03T13:45:58.314Z,9.90
2018-09-03T13:48:26.298Z,9.80
2018-09-03T13:50:54.454Z,10.67
2018-09-03T13:53:22.437Z,9.90
2018-09-03T13:55:50.441Z,9.77
2018-09-03T13:58:18.470Z,10.23
2018-09-03T14:00:46.498Z,9.17
2018-09-03T14:03:14.728Z,9.80
2018-09-03T14:05:42.733Z,10.33
2018-09-03T14:08:10.729Z,8.90
2018-09-03T14:10:38.760Z,9.33
2018-09-03T14:13:06.992Z,10.00
2018-09-03T14:15:35.066Z,9.20
2018-09-03T14:18:03.106Z,10.00
2018-09-03T14:20:32.429Z,9.87
2018-09-03T14:23:00.409Z,9.50
2018-09-03T14:25:28.459Z,9.20
2018-09-03T14:27:56.572Z,8.60
2018-09-03T14:30:24.563Z,9.60
2018-09-03T14:32:52.564Z,9.67
2018-09-03T14:35:20.560Z,10.03
2018-09-03T14:37:48.557Z,9.67
2018-09-03T14:40:16.573Z,10.00
2018-09-03T14:42:44.656Z,9.17
2018-09-03T14:45:12.680Z,9.10
2018-09-03T14:47:40.612Z,9.90
2018-09-03T14:50:08.628Z,10.03
2018-09-03T14:52:36.768Z,9.50
2018-09-03T14:55:04.833Z,10.07
2018-09-03T14:57:32.960Z,9.60
2018-09-03T15:00:01.014Z,9.37
2018-09-03T15:02:29.065Z,10.03
2018-09-03T15:04:57.013Z,10.37
2018-09-03T15:07:25.004Z,10.10
2018-09-03T15:09:52.996Z,9.80
2018-09-03T15:12:21.005Z,8.77
2018-09-03T15:14:49.039Z,9.03
2018-09-03T15:17:16.994Z,9.17
2018-09-03T15:19:45.009Z,9.40
2018-09-03T15:22:13.012Z,9.40
2018-09-03T15:24:41.031Z,8.93
2018-09-03T15:27:09.037Z,10.00
2018-09-03T15:29:37.021Z,9.90
2018-09-03T15:32:05.057Z,10.20
2018-09-03T15:34:33.169Z,9.67
2018-09-03T15:37:01.180Z,10.20
2018-09-03T15:39:29.196Z,10.23
2018-09-03T15:41:57.527Z,10.50
2018-09-03T15:44:25.526Z,10.30
2018-09-03T15:46:53.697Z,10.17
2018-09-03T15:49:21.689Z,9.40
2018-09-03T15:51:49.695Z,10.43
2018-09-03T15:54:17.733Z,10.27
2018-09-03T15:56:45.740Z,10.17
2018-09-03T15:59:13.798Z,10.13
2018-09-03T16:01:41.809Z,9.03
2018-09-03T16:04:09.841Z,10.30
2018-09-03T16:06:37.832Z,9.50
2018-09-03T16:09:08.587Z,10.20
2018-09-03T16:11:36.836Z,9.90
2018-09-03T16:14:04.881Z,9.67
2018-09-03T16:16:32.957Z,9.77
2018-09-03T16:19:00.986Z,9.40
2018-09-03T16:21:29.037Z,10.37
2018-09-03T16:23:57.078Z,10.20
2018-09-03T16:26:25.105Z,10.37
2018-09-03T16:28:53.205Z,9.37
2018-09-03T16:31:21.187Z,9.50
2018-09-03T16:33:49.197Z,9.10
2018-09-03T16:36:17.214Z,8.70
2018-09-03T16:38:45.435Z,8.23
2018-09-03T16:41:13.458Z,9.67
2018-09-03T16:43:41.617Z,8.60
2018-09-03T16:46:09.653Z,8.80
2018-09-03T16:48:37.732Z,9.67
2018-09-03T16:51:05.990Z,9.40
2018-09-03T16:53:34.032Z,8.97
2018-09-03T16:56:02.158Z,8.80
2018-09-03T16:58:30.209Z,8.63
2018-09-03T17:00:58.259Z,8.40
2018-09-03T17:03:26.233Z,9.90
2018-09-03T17:05:54.240Z,8.73
2018-09-03T17:08:22.310Z,9.37
2018-09-03T17:10:50.284Z,9.00
2018-09-03T17:13:18.331Z,9.80
2018-09-03T17:15:46.345Z,9.43
2018-09-03T17:18:14.365Z,9.63
2018-09-03T17:20:42.389Z,11.00
2018-09-03T17:23:10.514Z,10.83
2018-09-03T17:25:38.519Z,10.07
2018-09-03T17:28:06.625Z,10.43
2018-09-03T17:30:34.652Z,10.33
2018-09-03T17:33:02.897Z,10.00
2018-09-03T17:35:31.035Z,10.23
2018-09-03T17:37:59.112Z,10.73
2018-09-03T17:40:27.181Z,9.60
2018-09-03T17:42:55.173Z,9.97
2018-09-03T17:45:23.200Z,10.03
2018-09-03T17:47:51.225Z,11.00
2018-09-03T17:50:19.245Z,9.87
2018-09-03T17:52:47.312Z,9.90
2018-09-03T17:55:15.519Z,10.90
2018-09-03T17:57:43.549Z,10.70
2018-09-03T18:00:11.562Z,11.17
2018-09-03T18:02:39.744Z,11.20
2018-09-03T18:05:07.797Z,10.00
2018-09-03T18:07:36.006Z,10.83
2018-09-03T18:10:04.037Z,10.30
2018-09-03T18:12:32.187Z,10.87
2018-09-03T18:15:00.213Z,10.90
2018-09-03T18:17:28.234Z,10.60
2018-09-03T18:19:56.421Z,10.03
2018-09-03T18:22:24.453Z,11.40
2018-09-03T18:24:52.529Z,10.90
2018-09-03T18:27:20.545Z,10.30
2018-09-03T18:29:48.620Z,10.53
2018-09-03T18:32:16.775Z,11.50
2018-09-03T18:34:44.800Z,10.90
2018-09-03T18:37:12.998Z,11.57
2018-09-03T18:39:40.945Z,12.30
2018-09-03T18:42:09.159Z,11.10
2018-09-03T18:44:38.264Z,10.70
2018-09-03T18:47:06.398Z,11.10
2018-09-03T18:49:34.424Z,10.97
2018-09-03T18:52:02.471Z,11.27
2018-09-03T18:54:30.513Z,11.33
2018-09-03T18:56:58.528Z,11.73
2018-09-03T18:59:26.545Z,11.63
2018-09-03T19:01:54.559Z,12.00
2018-09-03T19:04:22.692Z,11.67
2018-09-03T19:06:50.721Z,11.93
2018-09-03T19:09:18.742Z,11.53
2018-09-03T19:11:46.801Z,11.60
2018-09-03T19:14:14.841Z,13.27
2018-09-03T19:16:42.914Z,12.10
2018-09-03T19:19:10.974Z,12.13
2018-09-03T19:21:38.994Z,11.73
2018-09-03T19:24:07.304Z,11.87
2018-09-03T19:26:35.297Z,11.83
2018-09-03T19:29:03.312Z,11.70
2018-09-03T19:31:31.347Z,11.73
2018-09-03T19:33:59.464Z,12.40
2018-09-03T19:36:27.503Z,11.83
2018-09-03T19:38:56.023Z,12.57
2018-09-03T19:41:24.046Z,12.40
2018-09-03T19:43:52.124Z,12.37
2018-09-03T19:46:20.357Z,13.90
2018-09-03T19:48:48.665Z,12.70
2018-09-03T19:51:16.708Z,12.30
2018-09-03T19:53:44.781Z,12.63
2018-09-03T19:56:12.914Z,12.50
2018-09-03T19:58:41.048Z,12.50
2018-09-03T20:01:09.084Z,13.20
2018-09-03T20:03:37.262Z,11.40
2018-09-03T20:06:05.288Z,11.70
2018-09-03T20:08:33.897Z,12.40
2018-09-03T20:11:01.954Z,12.60
2018-09-03T20:13:30.172Z,11.57
2018-09-03T20:15:58.436Z,12.70
2018-09-03T20:18:26.436Z,12.93
2018-09-03T20:20:54.464Z,13.13
2018-09-03T20:23:22.565Z,12.70
2018-09-03T20:25:50.537Z,12.27
2018-09-03T20:28:19.665Z,12.57
2018-09-03T20:30:47.665Z,13.03
2018-09-03T20:33:20.131Z,12.90
2018-09-03T20:35:48.454Z,12.80
2018-09-03T20:38:16.470Z,11.80
2018-09-03T20:40:45.706Z,13.23
2018-09-03T20:43:13.772Z,13.10
2018-09-03T20:45:41.846Z,12.97
2018-09-03T20:48:09.857Z,11.87
2018-09-03T20:50:37.999Z,12.20
2018-09-03T20:53:06.032Z,12.33
2018-09-03T20:55:34.044Z,12.43
2018-09-03T20:58:02.044Z,13.20
2018-09-03T21:00:30.037Z,10.60
2018-09-03T21:02:58.240Z,11.00
2018-09-03T21:05:26.363Z,11.40
2018-09-03T21:07:54.480Z,11.00
2018-09-03T21:10:22.524Z,11.60
2018-09-03T21:12:50.612Z,10.63
2018-09-03T21:15:18.617Z,11.30
2018-09-03T21:17:46.653Z,9.83
2018-09-03T21:20:14.944Z,11.57
2018-09-03T21:22:42.952Z,10.10
2018-09-03T21:25:10.969Z,11.90
2018-09-03T21:27:39.024Z,11.53
2018-09-03T21:30:07.640Z,10.70
2018-09-03T21:32:35.652Z,10.93
2018-09-03T21:35:04.145Z,11.20
2018-09-03T21:37:32.231Z,10.50
2018-09-03T21:40:00.267Z,10.97
2018-09-03T21:42:28.260Z,10.20
2018-09-03T21:44:56.274Z,10.70
2018-09-03T21:47:24.385Z,10.73
2018-09-03T21:49:52.437Z,10.70
2018-09-03T21:52:20.908Z,10.13
2018-09-03T21:54:48.928Z,10.00
2018-09-03T21:57:17.967Z,10.17
2018-09-03T21:59:45.980Z,9.63
2018-09-03T22:02:13.982Z,9.53
2018-09-03T22:04:42.794Z,9.83
2018-09-03T22:07:11.250Z,9.50
2018-09-03T22:09:39.380Z,9.10
2018-09-03T22:12:07.622Z,9.07
2018-09-03T22:14:35.670Z,8.33
2018-09-03T22:17:04.766Z,9.50
2018-09-03T22:19:32.826Z,9.37
2018-09-03T22:22:00.830Z,9.60
2018-09-03T22:24:28.833Z,9.10
2018-09-03T22:26:56.884Z,9.60
2018-09-03T22:29:24.902Z,9.10
2018-09-03T22:31:52.877Z,8.43
2018-09-03T22:34:20.880Z,8.03
2018-09-03T22:36:49.005Z,9.00
2018-09-03T22:39:17.033Z,8.67
2018-09-03T22:41:45.037Z,8.70
2018-09-03T22:44:13.041Z,9.10
2018-09-03T22:46:41.068Z,8.57
2018-09-03T22:49:09.181Z,8.87
2018-09-03T22:51:37.341Z,8.53
2018-09-03T22:54:05.526Z,9.73
2018-09-03T22:56:33.537Z,8.80
2018-09-03T22:59:01.768Z,8.77
2018-09-03T23:01:29.758Z,8.53
2018-09-03T23:03:57.812Z,8.70
2018-09-03T23:06:25.824Z,8.70
2018-09-03T23:08:53.870Z,7.00
2018-09-03T23:11:22.007Z,8.20
2018-09-03T23:13:49.925Z,7.53
2018-09-03T23:16:17.976Z,8.53
2018-09-03T23:18:45.988Z,8.40
2018-09-03T23:21:14.087Z,8.37
2018-09-03T23:23:42.095Z,8.00
2018-09-03T23:26:10.124Z,8.37
2018-09-03T23:28:38.159Z,7.80
2018-09-03T23:31:06.292Z,7.80
2018-09-03T23:33:34.316Z,7.57
2018-09-03T23:36:02.512Z,7.83
2018-09-03T23:38:30.508Z,8.00
2018-09-03T23:40:58.510Z,7.83
2018-09-03T23:43:26.556Z,7.90
2018-09-03T23:45:54.597Z,6.87
2018-09-03T23:48:22.675Z,7.17
2018-09-03T23:50:50.701Z,7.37
2018-09-03T23:53:18.721Z,8.17
2018-09-03T23:55:46.761Z,7.37
2018-09-03T23:58:14.762Z,8.70
